Time;durP1;ratioP1;P1;durP2;ratioP2;P2;SDS_P1;SDS_P2;PMS_P1;PMS_P2;Temp;Humidity;BMP_temperature;BMP_pressure;BME280_temperature;BME280_humidity;BME280_pressure;Samples;Min_cycle;Max_cycle;Signal;HPM_P1;HPM_P2
2022/02/24 00:00:31;;;;;;;3.57;0.87;;;;;;;5.82;85.13;99674.81;8310181;28;20053;-72
2022/02/24 00:04:35;;;;;;;2.93;0.90;;;;;;;5.86;84.50;99671.44;8319670;28;20049;-72
2022/02/24 00:08:37;;;;;;;1.90;1.10;;;;;;;5.95;83.80;99668.22;8322352;28;20144;-72
2022/02/24 00:12:39;;;;;;;1.60;0.73;;;;;;;6.14;80.69;99674.56;8323129;28;20053;-73
2022/02/24 00:16:40;;;;;;;1.42;0.90;;;;;;;6.34;78.73;99673.22;8335706;28;20442;-72
2022/02/24 00:20:42;;;;;;;2.27;0.90;;;;;;;6.33;79.73;99669.75;8322383;28;20099;-72
2022/02/24 00:24:44;;;;;;;4.30;1.10;;;;;;;6.34;80.28;99660.31;8321056;28;20141;-73
2022/02/24 00:28:46;;;;;;;3.10;1.00;;;;;;;6.35;80.80;99654.31;8316002;28;20092;-72
2022/02/24 00:36:52;;;;;;;3.03;0.80;;;;;;;6.34;81.55;99650.88;8279855;28;20058;-72
2022/02/24 00:40:54;;;;;;;2.25;1.00;;;;;;;6.35;81.10;99644.00;8276285;28;20060;-72
2022/02/24 00:44:55;;;;;;;1.23;0.80;;;;;;;6.36;80.86;99651.75;8280564;28;20056;-72
2022/02/24 00:48:58;;;;;;;3.20;1.10;;;;;;;6.37;81.40;99642.31;8275629;28;20091;-72
2022/02/24 00:52:59;;;;;;;1.50;1.10;;;;;;;6.41;80.46;99641.50;8283601;28;20089;-72
2022/02/24 00:57:01;;;;;;;2.03;1.30;;;;;;;6.46;79.90;99637.28;8279203;28;20069;-72
2022/02/24 01:01:03;;;;;;;2.33;0.97;;;;;;;6.56;78.33;99634.00;8282436;28;20168;-72
2022/02/24 01:05:05;;;;;;;1.43;0.90;;;;;;;6.56;79.87;99622.81;8270019;28;20377;-73
2022/02/24 01:09:07;;;;;;;3.47;1.90;;;;;;;6.55;80.06;99615.94;8289453;28;20455;-72
2022/02/24 01:13:08;;;;;;;4.10;1.00;;;;;;;6.61;78.30;99622.03;8289161;28;20512;-72
2022/02/24 01:17:10;;;;;;;2.00;1.07;;;;;;;6.70;77.45;99618.75;8300142;28;20097;-72
2022/02/24 01:21:11;;;;;;;1.60;0.90;;;;;;;6.70;78.01;99621.31;8274177;28;20677;-72
2022/02/24 01:25:13;;;;;;;2.73;1.63;;;;;;;6.76;76.84;99611.09;8287883;28;20128;-73
2022/02/24 01:29:14;;;;;;;2.80;1.20;;;;;;;6.84;75.76;99604.34;8289425;28;20793;-73
2022/02/24 01:33:16;;;;;;;4.10;1.23;;;;;;;6.90;74.88;99607.00;8285869;28;20074;-72
2022/02/24 01:37:17;;;;;;;3.17;1.00;;;;;;;6.94;75.02;99589.81;8289775;28;20053;-74
2022/02/24 01:41:19;;;;;;;8.07;0.97;;;;;;;6.95;75.19;99588.97;8287865;28;20058;-72
2022/02/24 01:45:20;;;;;;;4.37;1.10;;;;;;;6.94;75.09;99590.69;8285542;28;20335;-72
2022/02/24 01:49:22;;;;;;;2.90;0.90;;;;;;;6.97;74.53;99582.13;8288437;28;20077;-72
2022/02/24 01:53:24;;;;;;;2.72;1.17;;;;;;;6.97;74.51;99561.47;8288816;28;20104;-72
2022/02/24 01:57:26;;;;;;;1.90;0.87;;;;;;;7.00;74.11;99566.66;8287683;28;20049;-73
2022/02/24 02:01:27;;;;;;;2.13;0.97;;;;;;;7.01;73.91;99563.25;8281895;28;20064;-72
2022/02/24 02:05:30;;;;;;;2.10;0.80;;;;;;;6.99;74.20;99554.59;8287616;28;20077;-72
2022/02/24 02:09:32;;;;;;;5.78;1.25;;;;;;;7.02;73.91;99546.06;8287665;28;20283;-72
2022/02/24 02:13:34;;;;;;;2.13;1.30;;;;;;;7.04;73.31;99549.53;8286806;28;20141;-72
2022/02/24 02:17:36;;;;;;;3.30;1.03;;;;;;;7.03;73.50;99540.03;8283639;28;20064;-72
2022/02/24 02:21:37;;;;;;;2.90;1.03;;;;;;;7.01;73.54;99528.84;8286917;28;20060;-72
2022/02/24 02:25:39;;;;;;;4.80;1.20;;;;;;;7.01;74.16;99516.78;8269003;28;20096;-72
2022/02/24 02:29:40;;;;;;;2.10;0.87;;;;;;;7.01;74.51;99521.97;8287507;28;20160;-72
2022/02/24 02:33:42;;;;;;;1.42;0.85;;;;;;;7.00;74.10;99514.16;8265943;28;20361;-72
2022/02/24 02:37:43;;;;;;;1.30;0.80;;;;;;;7.03;74.06;99501.31;8286964;28;20173;-73
2022/02/24 02:41:47;;;;;;;2.83;0.87;;;;;;;7.04;73.91;99500.47;8269143;28;20446;-72
2022/02/24 02:45:50;;;;;;;3.27;0.80;;;;;;;7.04;74.05;99493.59;8262348;28;20153;-72
2022/02/24 02:49:51;;;;;;;2.20;1.10;;;;;;;7.03;74.11;99488.41;8286885;28;20060;-72
2022/02/24 02:53:53;;;;;;;5.43;0.90;;;;;;;7.03;73.91;99484.13;8286459;28;20052;-73
2022/02/24 02:57:54;;;;;;;2.20;0.90;;;;;;;7.02;74.36;99484.97;8286082;28;20061;-72
2022/02/24 03:01:56;;;;;;;2.13;1.10;;;;;;;7.02;74.20;99473.78;8284337;28;20140;-73
2022/02/24 03:05:59;;;;;;;1.17;1.08;;;;;;;7.04;73.83;99467.78;8289343;28;20584;-72
2022/02/24 03:10:02;;;;;;;1.50;0.85;;;;;;;7.04;73.69;99459.16;8290653;28;20140;-72
2022/02/24 03:14:03;;;;;;;3.30;0.90;;;;;;;7.04;73.93;99465.19;8291348;28;20138;-72
2022/02/24 03:18:05;;;;;;;2.83;0.80;;;;;;;7.03;74.30;99455.72;8286944;28;20160;-73
2022/02/24 03:22:09;;;;;;;1.00;0.90;;;;;;;7.04;74.16;99447.13;8290891;28;20145;-72
2022/02/24 03:26:10;;;;;;;2.83;0.70;;;;;;;7.04;73.89;99449.69;8290320;28;20052;-72
2022/02/24 03:30:12;;;;;;;1.47;0.60;;;;;;;7.05;74.04;99443.69;8270250;28;20053;-72
2022/02/24 03:34:15;;;;;;;1.38;0.88;;;;;;;7.04;74.28;99426.47;8291566;28;20525;-72
2022/02/24 03:38:16;;;;;;;1.40;0.70;;;;;;;7.04;74.33;99420.44;8286099;28;20088;-72
2022/02/24 03:42:18;;;;;;;3.77;0.90;;;;;;;7.04;74.03;99415.28;8290677;28;20064;-72
2022/02/24 03:46:20;;;;;;;2.07;0.80;;;;;;;7.07;73.92;99411.00;8286473;28;20156;-72
2022/02/24 03:50:23;;;;;;;2.60;1.03;;;;;;;7.09;73.89;99411.00;8285896;28;20053;-72
2022/02/24 03:54:24;;;;;;;1.85;0.70;;;;;;;7.08;74.13;99410.16;8289952;28;20038;-72
2022/02/24 03:58:26;;;;;;;2.30;0.73;;;;;;;7.08;74.59;99411.88;8289966;28;20136;-72
2022/02/24 04:02:27;;;;;;;1.40;0.83;;;;;;;7.08;74.27;99401.53;8266492;28;20053;-72
2022/02/24 04:06:29;;;;;;;3.77;0.80;;;;;;;7.09;74.26;99388.66;8286155;28;20462;-72
2022/02/24 04:10:31;;;;;;;2.28;0.80;;;;;;;7.11;74.01;99388.66;8285276;28;20053;-72
2022/02/24 04:14:32;;;;;;;2.93;0.80;;;;;;;7.08;74.29;99384.34;8285493;28;20054;-72
2022/02/24 04:18:34;;;;;;;2.27;0.73;;;;;;;7.11;73.87;99379.19;8281912;28;20886;-72
2022/02/24 04:22:35;;;;;;;1.00;0.63;;;;;;;7.13;73.55;99376.63;8284819;28;20087;-72
2022/02/24 04:26:37;;;;;;;1.30;0.70;;;;;;;7.15;73.44;99362.88;8285184;28;20049;-72
2022/02/24 04:30:38;;;;;;;1.97;0.67;;;;;;;7.14;73.17;99361.13;8281493;28;20064;-72
2022/02/24 04:34:40;;;;;;;2.00;0.70;;;;;;;7.16;73.47;99353.41;8285966;28;20092;-72
2022/02/24 04:38:41;;;;;;;2.77;0.93;;;;;;;7.15;73.25;99351.69;8291775;28;20058;-72
2022/02/24 04:42:44;;;;;;;2.37;0.67;;;;;;;7.12;73.92;99338.75;8284768;28;20068;-72
2022/02/24 04:46:47;;;;;;;2.37;0.80;;;;;;;7.10;73.99;99330.13;8278030;28;20581;-72
2022/02/24 04:50:49;;;;;;;2.83;0.80;;;;;;;7.10;74.43;99324.97;8287820;28;20050;-72
2022/02/24 04:54:51;;;;;;;1.43;0.77;;;;;;;7.10;74.25;99327.53;8290451;28;20077;-72
2022/02/24 04:58:54;;;;;;;2.57;0.67;;;;;;;7.10;74.00;99324.97;8277355;28;20049;-72
2022/02/24 05:02:55;;;;;;;3.90;0.77;;;;;;;7.10;74.57;99314.63;8288343;28;20104;-72
2022/02/24 05:07:00;;;;;;;2.38;0.95;;;;;;;7.06;74.66;99308.59;8289441;28;20073;-72
2022/02/24 05:11:01;;;;;;;2.10;0.60;;;;;;;7.08;73.99;99321.50;8278047;28;20054;-72
2022/02/24 05:15:03;;;;;;;1.75;0.90;;;;;;;7.05;74.53;99312.03;8287135;28;20057;-72
2022/02/24 05:19:05;;;;;;;1.77;0.88;;;;;;;7.03;74.51;99316.31;8289371;28;20077;-72
2022/02/24 05:23:06;;;;;;;2.13;0.60;;;;;;;7.02;74.69;99308.56;8290143;28;20065;-72
2022/02/24 05:27:08;;;;;;;1.23;0.60;;;;;;;7.01;75.00;99299.09;8289251;28;20085;-72
2022/02/24 05:31:09;;;;;;;1.30;0.70;;;;;;;6.97;75.63;99282.69;8285793;28;20076;-72
2022/02/24 05:35:11;;;;;;;1.87;0.70;;;;;;;6.98;75.24;99287.84;8290713;28;20538;-72
2022/02/24 05:39:12;;;;;;;2.30;1.10;;;;;;;6.97;75.29;99280.09;8293172;28;20049;-72
2022/02/24 05:43:17;;;;;;;2.27;0.67;;;;;;;6.97;75.02;99272.38;8268006;28;20053;-72
2022/02/24 05:47:19;;;;;;;1.77;0.60;;;;;;;6.98;75.24;99264.63;8283737;28;20458;-72
2022/02/24 05:51:21;;;;;;;2.87;0.80;;;;;;;6.98;75.10;99261.19;8288387;28;20457;-72
2022/02/24 05:55:22;;;;;;;1.50;0.60;;;;;;;6.97;74.99;99256.88;8287657;28;20052;-72
2022/02/24 05:59:24;;;;;;;1.97;0.60;;;;;;;6.96;75.57;99248.28;8288103;28;20088;-72
2022/02/24 06:03:26;;;;;;;1.83;0.70;;;;;;;6.97;75.29;99238.81;8284267;28;20057;-72
2022/02/24 06:07:27;;;;;;;0.97;0.80;;;;;;;6.98;75.05;99246.56;8271653;28;20050;-72
2022/02/24 06:11:29;;;;;;;2.43;0.80;;;;;;;6.98;75.07;99248.28;8272352;28;20054;-72
2022/02/24 06:15:30;;;;;;;2.77;0.97;;;;;;;6.95;75.43;99238.81;8282581;28;20065;-72
2022/02/24 06:19:31;;;;;;;2.80;0.80;;;;;;;6.94;75.65;99239.66;8287380;28;20633;-72
2022/02/24 06:23:33;;;;;;;1.17;0.80;;;;;;;6.95;75.54;99249.13;8287922;28;20148;-72
2022/02/24 06:27:34;;;;;;;2.60;0.80;;;;;;;6.93;75.87;99247.38;8287005;28;20170;-73
2022/02/24 06:31:37;;;;;;;2.50;0.90;;;;;;;6.93;75.71;99239.66;8264340;28;20172;-73
2022/02/24 06:35:38;;;;;;;;;;;;;;;6.94;75.67;99228.47;8285066;28;20054;-73
2022/02/24 06:39:40;;;;;;;1.00;0.80;;;;;;;6.93;75.68;99224.16;8286972;28;20016;-74
2022/02/24 06:43:41;;;;;;;0.97;0.60;;;;;;;6.95;75.75;99230.19;8286312;28;20136;-73
2022/02/24 06:47:43;;;;;;;2.57;0.90;;;;;;;6.98;75.53;99225.03;8283905;28;20061;-73
2022/02/24 06:51:45;;;;;;;2.63;0.70;;;;;;;7.01;75.26;99221.66;8287227;28;20137;-73
2022/02/24 06:55:46;;;;;;;2.50;0.80;;;;;;;7.03;75.39;99217.34;8283737;28;20050;-73
2022/02/24 06:59:48;;;;;;;1.70;0.67;;;;;;;7.05;75.72;99219.09;8283094;28;20140;-71
2022/02/24 07:03:49;;;;;;;2.30;0.80;;;;;;;7.06;75.45;99220.81;8265679;28;20061;-73
2022/02/24 07:07:51;;;;;;;2.20;1.00;;;;;;;7.09;75.26;99222.56;8285425;28;20141;-73
2022/02/24 07:11:56;;;;;;;3.27;0.90;;;;;;;7.14;75.82;99219.13;8274536;28;20054;-72
2022/02/24 07:15:58;;;;;;;3.90;0.80;;;;;;;7.20;75.10;99208.00;8276022;28;20072;-73
2022/02/24 07:19:59;;;;;;;3.17;0.80;;;;;;;7.25;74.33;99211.47;8274460;28;20054;-73
2022/02/24 07:24:01;;;;;;;2.13;0.70;;;;;;;7.29;74.05;99208.03;8259420;28;20046;-74
2022/02/24 07:28:03;;;;;;;1.90;0.80;;;;;;;7.33;74.10;99208.91;8284431;28;20128;-73
2022/02/24 07:32:12;;;;;;;1.47;0.73;;;;;;;7.38;74.46;99200.38;8280613;28;20477;-70
2022/02/24 07:36:14;;;;;;;2.70;0.70;;;;;;;7.45;74.61;99206.41;8284684;28;20153;-71
2022/02/24 07:40:16;;;;;;;2.15;1.42;;;;;;;7.50;73.98;99199.53;8284285;28;20140;-74
2022/02/24 07:44:17;;;;;;;1.90;0.70;;;;;;;7.59;74.09;99197.00;8283466;28;20058;-72
2022/02/24 07:48:19;;;;;;;1.60;0.60;;;;;;;7.72;73.83;99203.06;8279493;28;20065;-72
2022/02/24 07:52:22;;;;;;;1.27;0.77;;;;;;;7.83;73.69;99204.00;8277945;28;20061;-72
2022/02/24 07:56:23;;;;;;;0.87;0.57;;;;;;;7.90;72.86;99200.59;8282203;28;20116;-73
2022/02/24 08:00:25;;;;;;;5.90;0.77;;;;;;;8.02;73.21;99189.41;8277880;28;20385;-73
2022/02/24 08:04:27;;;;;;;2.30;0.80;;;;;;;8.14;73.47;99190.28;8264670;28;20142;-73
2022/02/24 08:08:28;;;;;;;2.03;0.67;;;;;;;8.29;72.38;99178.25;8281217;28;20069;-74
2022/02/24 08:12:38;;;;;;;3.70;0.73;;;;;;;8.42;71.61;99180.00;8280334;28;20050;-74
2022/02/24 08:16:40;;;;;;;1.42;0.70;;;;;;;8.63;71.43;99163.66;8258785;28;20834;-73
2022/02/24 08:20:41;;;;;;;2.88;0.80;;;;;;;8.77;70.59;99165.34;8280444;28;20054;-73
2022/02/24 08:24:43;;;;;;;0.88;0.70;;;;;;;8.92;70.53;99159.28;8281468;28;20145;-73
2022/02/24 08:28:46;;;;;;;1.17;0.70;;;;;;;9.11;69.15;99149.75;8287817;28;20064;-74
2022/02/24 08:32:48;;;;;;;;;;;;;;;9.27;68.66;99154.03;8263784;28;20102;-73
2022/02/24 08:36:51;;;;;;;1.00;0.50;;;;;;;9.45;68.14;99153.09;8290566;28;20073;-74
2022/02/24 08:40:53;;;;;;;0.60;0.50;;;;;;;9.54;66.05;99155.69;8288738;28;20093;-74
2022/02/24 08:44:55;;;;;;;2.03;0.77;;;;;;;9.66;66.66;99141.78;8282067;28;20169;-75
2022/02/24 08:49:07;;;;;;;1.55;0.50;;;;;;;9.68;65.87;99133.13;8284802;28;20053;-75
2022/02/24 08:53:09;;;;;;;0.90;0.40;;;;;;;9.71;66.00;99121.03;8286619;28;20053;-74
2022/02/24 08:57:11;;;;;;;3.03;0.95;;;;;;;9.71;66.44;99113.25;8286098;28;20385;-74
2022/02/24 09:01:13;;;;;;;2.05;0.68;;;;;;;9.60;66.14;99116.75;8283534;28;20057;-75
2022/02/24 09:05:15;;;;;;;1.37;0.60;;;;;;;9.67;66.56;99113.25;8265811;28;20050;-74
2022/02/24 09:09:17;;;;;;;3.30;1.08;;;;;;;9.62;66.44;99116.75;8284994;28;20313;-74
2022/02/24 09:13:18;;;;;;;2.53;0.70;;;;;;;9.59;66.41;99120.22;8285030;28;20532;-73
2022/02/24 09:17:20;;;;;;;1.92;0.88;;;;;;;9.52;66.88;99121.13;8281425;28;20529;-73
2022/02/24 09:21:22;;;;;;;1.20;0.80;;;;;;;9.60;67.05;99116.75;8265502;28;20077;-73
2022/02/24 09:25:23;;;;;;;2.03;0.80;;;;;;;9.66;67.06;99110.66;8284351;28;20709;-74
2022/02/24 09:29:25;;;;;;;3.63;0.80;;;;;;;9.78;67.31;99095.06;8287200;28;20050;-74
2022/02/24 09:33:28;;;;;;;1.75;0.85;;;;;;;9.85;66.32;99093.28;8282201;28;20137;-74
2022/02/24 09:37:34;;;;;;;2.55;0.70;;;;;;;9.94;66.65;99095.81;8285498;28;20103;-74
2022/02/24 09:41:36;;;;;;;1.35;0.60;;;;;;;9.91;66.45;99099.31;8285071;28;20058;-74
2022/02/24 09:45:41;;;;;;;2.45;1.08;;;;;;;9.87;66.21;99105.34;8282615;28;20054;-73
2022/02/24 09:49:45;;;;;;;2.53;1.00;;;;;;;9.97;66.44;99096.66;8285641;28;20064;-74
2022/02/24 09:53:48;;;;;;;2.50;0.50;;;;;;;10.19;66.47;99097.34;8284773;28;20507;-74
2022/02/24 09:57:49;;;;;;;1.45;0.60;;;;;;;10.33;65.84;99089.50;8284382;28;20342;-75
2022/02/24 10:01:51;;;;;;;3.70;0.65;;;;;;;10.39;65.25;99086.84;8280799;28;20065;-75
2022/02/24 10:05:53;;;;;;;1.88;0.60;;;;;;;10.42;64.81;99091.19;8284359;28;20050;-72
2022/02/24 10:09:54;;;;;;;3.05;0.90;;;;;;;10.46;65.23;99090.28;8283222;28;20085;-75
2022/02/24 10:14:01;;;;;;;2.55;1.00;;;;;;;10.49;64.91;99087.63;8284722;28;20096;-73
2022/02/24 10:18:12;;;;;;;1.50;0.85;;;;;;;10.44;64.86;99092.88;8278840;28;20069;-73
2022/02/24 10:22:15;;;;;;;1.27;0.60;;;;;;;10.45;65.88;99088.56;8283263;28;20672;-73
2022/02/24 10:26:19;;;;;;;1.17;0.70;;;;;;;10.38;65.76;99086.88;8281510;28;20099;-72
2022/02/24 10:30:20;;;;;;;3.83;1.00;;;;;;;10.48;65.90;99091.97;8279454;28;20050;-72
2022/02/24 10:34:25;;;;;;;3.80;0.70;;;;;;;10.41;65.08;99094.63;8283609;28;20042;-73
2022/02/24 10:38:29;;;;;;;2.22;0.90;;;;;;;10.40;66.01;99087.69;8282862;28;20056;-72
2022/02/24 10:42:31;;;;;;;3.20;0.90;;;;;;;10.41;65.90;99079.03;8281359;28;20065;-72
2022/02/24 10:46:32;;;;;;;2.83;0.70;;;;;;;10.40;64.98;99080.78;8278972;28;20065;-74
2022/02/24 10:50:48;;;;;;;6.43;1.02;;;;;;;10.31;65.15;99080.00;8265276;28;20448;-73
2022/02/24 10:54:58;;;;;;;1.90;0.80;;;;;;;10.37;65.88;99065.25;8288257;28;20053;-74
2022/02/24 10:59:00;;;;;;;2.20;0.98;;;;;;;10.49;65.07;99067.72;8281799;28;20060;-74
2022/02/24 11:03:01;;;;;;;3.97;0.90;;;;;;;10.60;64.51;99062.44;8277050;28;20053;-75
2022/02/24 11:07:03;;;;;;;3.85;0.80;;;;;;;10.61;65.30;99053.78;8282368;28;20062;-74
2022/02/24 11:11:06;;;;;;;2.20;0.87;;;;;;;10.78;65.59;99049.28;8279869;28;20057;-74
2022/02/24 11:15:08;;;;;;;1.65;1.05;;;;;;;10.91;65.42;99034.41;8275876;28;20435;-74
2022/02/24 11:19:09;;;;;;;2.07;0.83;;;;;;;11.01;64.32;99033.44;8260021;28;20153;-74
2022/02/24 11:23:13;;;;;;;2.03;0.93;;;;;;;11.10;65.04;99027.25;8261685;28;20059;-74
2022/02/24 11:27:21;;;;;;;1.33;0.93;;;;;;;10.87;63.84;99028.38;8278841;28;20128;-75
2022/02/24 11:31:50;;;;;;;1.90;1.02;;;;;;;10.71;64.68;99015.59;8276107;28;20073;-74
2022/02/24 11:36:07;;;;;;;4.20;1.20;;;;;;;10.73;65.16;99019.03;8266640;28;20135;-74
2022/02/24 11:40:21;;;;;;;2.88;0.90;;;;;;;10.89;65.47;99016.22;8261358;28;20050;-74
2022/02/24 11:44:40;;;;;;;1.27;0.70;;;;;;;11.00;65.09;99003.13;8275988;28;20152;-74
2022/02/24 11:48:42;;;;;;;2.92;1.17;;;;;;;11.00;65.02;99007.47;8275695;28;20136;-74
2022/02/24 11:52:46;;;;;;;2.60;1.10;;;;;;;10.96;65.28;98993.66;8279434;28;20149;-74
2022/02/24 11:56:48;;;;;;;3.58;1.33;;;;;;;10.89;65.42;98992.00;8278551;28;20049;-74
2022/02/24 12:01:15;;;;;;;3.85;0.70;;;;;;;11.14;65.47;99002.97;8280987;28;20743;-74
2022/02/24 12:05:27;;;;;;;1.10;0.60;;;;;;;11.16;64.27;99007.25;8295263;28;20042;-75
2022/02/24 12:09:32;;;;;;;2.97;1.00;;;;;;;11.23;64.72;99000.22;8285443;28;20136;-74
2022/02/24 12:13:34;;;;;;;1.50;0.73;;;;;;;11.23;64.98;99001.97;8286448;28;20049;-75
2022/02/24 12:17:48;;;;;;;1.20;0.77;;;;;;;11.12;64.01;98995.16;8281290;28;20141;-74
2022/02/24 12:22:11;;;;;;;1.15;0.55;;;;;;;11.24;64.20;99003.69;8285178;28;20068;-74
2022/02/24 12:26:15;;;;;;;1.20;0.52;;;;;;;11.24;63.71;98999.34;8286990;28;20711;-74
2022/02/24 12:30:25;;;;;;;1.00;0.40;;;;;;;11.18;63.88;98994.25;8261310;28;20140;-75
2022/02/24 12:34:28;;;;;;;2.28;0.60;;;;;;;11.17;63.35;98995.97;8282512;28;20088;-74
2022/02/24 12:38:29;;;;;;;0.70;0.70;;;;;;;11.32;63.22;98988.88;8282117;28;20129;-74
2022/02/24 12:42:31;;;;;;;0.87;0.50;;;;;;;11.73;63.65;98964.84;8263513;28;20053;-73
2022/02/24 12:46:32;;;;;;;2.53;0.73;;;;;;;11.83;62.04;98974.22;8279467;28;20050;-74
2022/02/24 12:50:43;;;;;;;1.47;0.50;;;;;;;11.52;61.49;98972.97;8285076;28;20748;-74
2022/02/24 12:54:45;;;;;;;0.30;0.30;;;;;;;11.24;62.23;98962.09;8284574;28;20060;-74
2022/02/24 12:58:46;;;;;;;1.08;0.65;;;;;;;11.02;63.06;98965.00;8282301;28;20049;-74
2022/02/24 13:02:48;;;;;;;1.15;0.43;;;;;;;10.87;63.45;98962.59;8281947;28;20473;-74
2022/02/24 13:06:49;;;;;;;0.55;0.40;;;;;;;10.79;63.62;98969.63;8264799;28;20072;-74
2022/02/24 13:10:51;;;;;;;0.32;0.20;;;;;;;10.75;63.77;98954.94;8284806;28;20092;-73
2022/02/24 13:14:53;;;;;;;0.40;0.32;;;;;;;10.82;63.19;98956.59;8282849;28;20473;-73
2022/02/24 13:18:55;;;;;;;;;;;;;;;10.92;62.80;98958.19;8282316;28;20069;-74
2022/02/24 13:22:57;;;;;;;1.38;0.30;;;;;;;11.04;61.48;98965.84;8284609;28;20419;-73
2022/02/24 13:26:59;;;;;;;0.70;0.20;;;;;;;11.17;60.45;98988.19;8284524;28;20133;-74
2022/02/24 13:31:17;;;;;;;1.55;0.30;;;;;;;11.22;57.89;98969.06;8274092;28;20555;-73
2022/02/24 13:35:21;;;;;;;1.20;0.30;;;;;;;11.28;57.06;98975.03;8264870;28;20183;-74
2022/02/24 13:39:36;;;;;;;0.43;0.32;;;;;;;11.37;55.79;98961.91;8284359;28;20046;-74
2022/02/24 13:43:40;;;;;;;0.90;0.20;;;;;;;11.45;56.56;98957.44;8282624;28;20433;-73
2022/02/24 13:47:41;;;;;;;1.65;0.20;;;;;;;11.68;57.14;98964.06;8279456;28;20068;-74
2022/02/24 13:51:42;;;;;;;0.43;0.20;;;;;;;12.00;55.82;98955.75;8283285;28;20054;-74
2022/02/24 13:55:58;;;;;;;0.30;0.30;;;;;;;11.99;53.49;98967.88;8283541;28;20108;-74
2022/02/24 14:00:03;;;;;;;1.38;0.30;;;;;;;12.08;54.12;98946.94;8295961;28;20041;-74
2022/02/24 14:04:07;;;;;;;1.35;0.20;;;;;;;12.12;53.65;98939.91;8296725;28;20057;-74
2022/02/24 14:08:08;;;;;;;2.20;0.28;;;;;;;12.09;53.43;98932.16;8283577;28;20733;-73
2022/02/24 14:12:10;;;;;;;0.38;0.20;;;;;;;12.10;53.88;98926.94;8283793;28;20064;-74
2022/02/24 14:16:12;;;;;;;0.73;0.20;;;;;;;12.16;52.16;98930.31;8286113;28;20064;-72
2022/02/24 14:20:16;;;;;;;0.52;0.20;;;;;;;12.05;52.65;98920.97;8266689;28;20061;-74
2022/02/24 14:24:17;;;;;;;1.05;0.30;;;;;;;12.10;52.29;98932.13;8278976;28;20513;-74
2022/02/24 14:28:19;;;;;;;0.88;0.20;;;;;;;12.05;51.49;98917.50;8287804;28;20766;-74
2022/02/24 14:32:20;;;;;;;0.85;0.20;;;;;;;12.05;52.06;98918.38;8279298;28;20526;-72
2022/02/24 14:36:22;;;;;;;0.20;0.20;;;;;;;11.94;52.37;98919.44;8283331;28;20085;-73
2022/02/24 14:40:24;;;;;;;0.93;0.20;;;;;;;11.76;51.60;98915.38;8280109;28;20062;-74
2022/02/24 14:44:26;;;;;;;0.98;0.20;;;;;;;11.64;52.44;98916.41;8282036;28;20100;-74
2022/02/24 14:48:27;;;;;;;0.20;0.20;;;;;;;11.55;53.80;98910.53;8277416;28;20188;-74
2022/02/24 14:52:29;;;;;;;0.30;0.20;;;;;;;11.40;54.73;98903.81;8265106;28;20064;-75
2022/02/24 14:56:30;;;;;;;0.20;0.20;;;;;;;11.42;54.69;98896.84;8278051;28;20132;-74
2022/02/24 15:00:33;;;;;;;0.50;0.20;;;;;;;11.59;54.89;98888.78;8277361;28;20547;-74
2022/02/24 15:04:35;;;;;;;0.75;0.20;;;;;;;11.48;53.98;98879.41;8281487;28;20290;-74
2022/02/24 15:08:37;;;;;;;;;;;;;;;11.42;54.22;98889.06;8282724;28;20133;-74
2022/02/24 15:12:39;;;;;;;0.38;0.10;;;;;;;11.37;53.86;98888.28;8280801;28;19972;-74
2022/02/24 15:16:40;;;;;;;0.30;0.10;;;;;;;11.30;52.67;98882.28;8277132;28;20141;-74
2022/02/24 15:20:44;;;;;;;1.23;0.10;;;;;;;11.24;52.52;98882.41;8281319;28;20065;-74
2022/02/24 15:24:45;;;;;;;0.57;0.20;;;;;;;11.28;53.52;98891.84;8281563;28;20350;-74
2022/02/24 15:28:47;;;;;;;0.28;0.20;;;;;;;11.24;52.83;98885.00;8281520;28;20161;-74
2022/02/24 15:32:49;;;;;;;0.20;0.20;;;;;;;11.18;51.99;98880.75;8276808;28;20053;-74
2022/02/24 15:36:50;;;;;;;0.30;0.10;;;;;;;11.11;52.90;98867.88;8280278;28;20193;-75
2022/02/24 15:40:54;;;;;;;0.77;0.10;;;;;;;10.97;50.72;98875.88;8278365;28;20606;-74
2022/02/24 15:44:58;;;;;;;0.20;0.10;;;;;;;10.89;51.50;98875.97;8280852;28;20356;-75
2022/02/24 15:49:00;;;;;;;0.75;0.20;;;;;;;10.84;51.32;98877.78;8276566;28;20164;-74
2022/02/24 15:53:01;;;;;;;3.40;0.10;;;;;;;10.82;50.85;98863.97;8281651;28;20518;-74
2022/02/24 15:57:03;;;;;;;0.38;0.20;;;;;;;10.83;51.53;98857.88;8264327;28;20068;-74
2022/02/24 16:01:05;;;;;;;0.20;0.10;;;;;;;10.84;51.76;98838.84;8276818;28;20065;-74
2022/02/24 16:05:08;;;;;;;0.20;0.20;;;;;;;10.80;51.15;98844.09;8279501;28;20061;-74
2022/02/24 16:09:10;;;;;;;0.55;0.20;;;;;;;10.75;51.85;98833.75;8279305;28;20501;-74
2022/02/24 16:13:11;;;;;;;0.28;0.20;;;;;;;10.74;52.09;98825.97;8280760;28;20046;-74
2022/02/24 16:17:13;;;;;;;2.25;0.55;;;;;;;10.76;52.19;98826.81;8276204;28;20070;-74
2022/02/24 16:21:15;;;;;;;3.25;0.40;;;;;;;10.79;52.67;98814.69;8262536;28;20072;-74
2022/02/24 16:25:16;;;;;;;1.48;0.45;;;;;;;10.69;52.13;98825.19;8275132;28;20501;-74
2022/02/24 16:29:18;;;;;;;0.97;0.30;;;;;;;10.57;52.00;98808.03;8280926;28;20080;-74
2022/02/24 16:33:19;;;;;;;2.40;0.50;;;;;;;10.50;52.78;98819.41;8275809;28;20046;-74
2022/02/24 16:37:24;;;;;;;1.65;0.40;;;;;;;10.46;53.31;98822.94;8281309;28;20476;-74
2022/02/24 16:41:27;;;;;;;2.00;0.37;;;;;;;10.45;53.60;98816.03;8277769;28;20514;-75
2022/02/24 16:45:28;;;;;;;0.98;0.45;;;;;;;10.44;52.80;98812.56;8275866;28;20049;-74
2022/02/24 16:49:32;;;;;;;0.68;0.50;;;;;;;10.42;53.79;98816.06;8284721;28;20374;-74
2022/02/24 16:53:33;;;;;;;0.20;0.20;;;;;;;10.40;54.19;98813.47;8285214;28;20057;-74
2022/02/24 16:57:38;;;;;;;1.33;0.30;;;;;;;10.37;54.22;98810.06;8279221;28;20060;-75
2022/02/24 17:01:58;;;;;;;1.20;0.40;;;;;;;10.35;54.94;98830.84;8276942;28;20467;-75
2022/02/24 17:06:00;;;;;;;0.57;0.30;;;;;;;10.26;56.84;98973.69;8283805;28;20148;-73
2022/02/24 17:10:02;;;;;;;0.03;0.00;;;;;;;9.90;62.15;99019.78;8281854;28;20136;-72
2022/02/24 17:14:04;;;;;;;1.10;0.20;;;;;;;9.24;66.57;99034.88;8283338;28;20148;-72
2022/02/24 17:18:05;;;;;;;1.88;0.10;;;;;;;8.57;68.95;99063.56;8278814;28;21117;-72
2022/02/24 17:22:07;;;;;;;0.98;0.10;;;;;;;8.11;71.75;99079.09;8281985;28;20483;-73
2022/02/24 17:26:09;;;;;;;0.68;0.10;;;;;;;7.77;73.79;99103.19;8282129;28;20129;-72
2022/02/24 17:30:11;;;;;;;0.15;0.10;;;;;;;7.47;75.00;99112.56;8276816;28;20050;-72
2022/02/24 17:34:12;;;;;;;0.40;0.10;;;;;;;7.14;75.87;99140.81;8266471;28;20096;-73
2022/02/24 17:38:14;;;;;;;0.10;0.10;;;;;;;6.91;76.05;99157.03;8278523;28;20059;-72
2022/02/24 17:42:16;;;;;;;0.10;0.10;;;;;;;6.74;77.07;99156.06;8295866;28;20542;-72
2022/02/24 17:46:19;;;;;;;0.95;0.10;;;;;;;6.56;78.01;99179.16;8277765;28;20085;-72
2022/02/24 17:50:20;;;;;;;0.20;0.10;;;;;;;6.43;78.60;99211.69;8280100;28;20052;-72
2022/02/24 17:54:23;;;;;;;0.60;0.10;;;;;;;6.14;77.98;99219.16;8266235;28;20482;-73
2022/02/24 17:58:25;;;;;;;;;;;;;;;5.88;78.48;99238.56;8265650;28;20081;-72
2022/02/24 18:02:28;;;;;;;0.50;0.20;;;;;;;5.80;78.56;99253.97;8278586;28;20014;-72
2022/02/24 18:06:31;;;;;;;1.80;0.20;;;;;;;5.45;78.51;99259.50;8280566;28;20104;-73
2022/02/24 18:10:33;;;;;;;1.07;0.20;;;;;;;5.20;79.77;99257.41;8272409;28;20061;-72
2022/02/24 18:14:35;;;;;;;0.20;0.20;;;;;;;5.12;79.77;99264.16;8271215;28;20509;-72
2022/02/24 18:18:38;;;;;;;0.53;0.20;;;;;;;5.05;80.53;99272.66;8266272;28;20058;-72
2022/02/24 18:22:40;;;;;;;0.20;0.10;;;;;;;4.98;81.12;99275.94;8268642;28;20302;-73
2022/02/24 18:26:42;;;;;;;0.77;0.20;;;;;;;4.93;81.26;99275.00;8269374;28;20050;-73
2022/02/24 18:30:43;;;;;;;1.87;0.30;;;;;;;4.83;81.05;99266.25;8267153;28;20153;-73
2022/02/24 18:34:45;;;;;;;0.60;0.20;;;;;;;4.66;81.34;99276.28;8247840;28;20062;-72
2022/02/24 18:38:46;;;;;;;0.40;0.20;;;;;;;4.63;81.54;99285.63;8269932;28;20125;-71
2022/02/24 18:42:48;;;;;;;0.20;0.20;;;;;;;4.53;81.46;99264.06;8276798;28;20061;-73
2022/02/24 18:46:49;;;;;;;0.60;0.27;;;;;;;4.44;81.66;99269.03;8267365;28;21606;-72
2022/02/24 18:50:52;;;;;;;0.30;0.20;;;;;;;4.48;82.28;99265.66;8247856;28;20049;-73
2022/02/24 18:54:53;;;;;;;0.20;0.20;;;;;;;4.48;82.83;99265.66;8276733;28;20088;-73
2022/02/24 18:58:55;;;;;;;0.40;0.15;;;;;;;4.41;83.17;99261.25;8268764;28;20100;-73
2022/02/24 19:02:57;;;;;;;0.10;0.10;;;;;;;4.49;84.07;99231.44;8286545;28;20061;-72
2022/02/24 19:06:59;;;;;;;0.30;0.20;;;;;;;4.44;83.58;99222.75;8269262;28;20046;-73
2022/02/24 19:11:22;;;;;;;1.17;0.20;;;;;;;4.36;83.99;99255.19;8270318;28;20054;-73
2022/02/24 19:15:24;;;;;;;1.60;0.20;;;;;;;4.25;84.41;99258.41;8265596;28;21681;-73